Time;durP1;ratioP1;P1;durP2;ratioP2;P2;SDS_P1;SDS_P2;PMS_P1;PMS_P2;Temp;Humidity;BMP_temperature;BMP_pressure;BME280_temperature;BME280_humidity;BME280_pressure;Samples;Min_cycle;Max_cycle;Signal;HPM_P1;HPM_P2
2021/07/11 00:00:31;;;;;;;0.30;0.30;;;18.80;99.90;;;;;;4996814;28;20254;-78
2021/07/11 00:03:00;;;;;;;0.40;0.40;;;18.90;99.90;;;;;;4995741;28;20223;-78
2021/07/11 00:05:29;;;;;;;0.40;0.40;;;18.90;99.90;;;;;;4995489;28;20466;-77
2021/07/11 00:07:57;;;;;;;0.30;0.30;;;18.80;99.90;;;;;;4996427;28;20251;-78
2021/07/11 00:10:25;;;;;;;0.30;0.30;;;19.00;99.90;;;;;;4996169;28;20212;-78
2021/07/11 00:12:55;;;;;;;0.30;0.30;;;19.10;99.90;;;;;;4995492;28;20287;-78
2021/07/11 00:15:24;;;;;;;0.30;0.30;;;19.00;99.90;;;;;;4995824;28;20295;-77
2021/07/11 00:17:53;;;;;;;0.30;0.30;;;19.00;99.90;;;;;;4996056;28;20227;-77
2021/07/11 00:20:24;;;;;;;0.40;0.40;;;19.10;99.90;;;;;;4996433;28;20267;-78
2021/07/11 00:22:52;;;;;;;0.30;0.30;;;18.80;99.90;;;;;;4996241;28;20709;-77
2021/07/11 00:25:21;;;;;;;0.40;0.40;;;18.60;99.90;;;;;;4996397;28;20207;-78
2021/07/11 00:27:49;;;;;;;0.40;0.40;;;18.80;99.90;;;;;;4995694;28;20204;-77
2021/07/11 00:30:19;;;;;;;0.30;0.30;;;18.80;99.90;;;;;;4995157;28;20279;-77
2021/07/11 00:32:47;;;;;;;0.40;0.40;;;18.70;99.90;;;;;;4995776;28;20228;-78
2021/07/11 00:35:16;;;;;;;0.30;0.30;;;18.80;99.90;;;;;;4995774;28;20263;-77
2021/07/11 00:37:45;;;;;;;0.30;0.30;;;18.70;99.90;;;;;;4995746;28;20266;-78
2021/07/11 00:40:14;;;;;;;0.30;0.30;;;18.70;99.90;;;;;;4996390;28;20207;-77
2021/07/11 00:42:43;;;;;;;0.30;0.30;;;18.70;99.90;;;;;;4995140;28;20227;-77
2021/07/11 00:45:13;;;;;;;0.30;0.30;;;18.70;99.90;;;;;;4995245;28;20208;-78
2021/07/11 00:47:43;;;;;;;0.30;0.30;;;18.60;99.90;;;;;;4995457;28;20629;-77
2021/07/11 00:50:14;;;;;;;0.30;0.30;;;18.70;99.90;;;;;;4995532;28;20817;-77
2021/07/11 00:52:42;;;;;;;0.30;0.30;;;18.40;99.90;;;;;;4996102;28;20223;-77
2021/07/11 00:55:12;;;;;;;0.30;0.30;;;18.40;99.90;;;;;;4996046;28;20271;-78
2021/07/11 00:57:40;;;;;;;0.30;0.30;;;18.40;99.90;;;;;;4995281;28;20290;-78
2021/07/11 01:00:10;;;;;;;0.30;0.30;;;18.30;99.90;;;;;;4995539;28;20262;-78
2021/07/11 01:02:47;;;;;;;0.30;0.30;;;18.10;99.90;;;;;;4996051;28;20231;-78
2021/07/11 01:05:16;;;;;;;0.30;0.30;;;18.40;99.90;;;;;;4995912;28;20262;-78
2021/07/11 01:07:48;;;;;;;0.30;0.30;;;18.40;99.90;;;;;;4997854;28;20640;-77
2021/07/11 01:10:23;;;;;;;0.30;0.30;;;18.40;99.90;;;;;;4996949;28;20211;-78
2021/07/11 01:12:55;;;;;;;0.30;0.30;;;18.30;99.90;;;;;;4997219;28;20239;-78
2021/07/11 01:15:24;;;;;;;0.30;0.30;;;18.30;99.90;;;;;;4996635;28;20204;-78
2021/07/11 01:17:53;;;;;;;0.30;0.30;;;18.40;99.90;;;;;;4996690;28;20219;-77
2021/07/11 01:20:34;;;;;;;0.30;0.30;;;18.50;99.90;;;;;;4995900;28;20688;-78
2021/07/11 01:23:04;;;;;;;0.30;0.30;;;18.30;99.90;;;;;;4996913;28;20224;-77
2021/07/11 01:25:36;;;;;;;0.30;0.30;;;18.40;99.90;;;;;;4997731;28;20200;-77
2021/07/11 01:28:06;;;;;;;0.30;0.30;;;18.50;99.90;;;;;;4999282;28;20203;-78
2021/07/11 01:30:36;;;;;;;0.30;0.30;;;18.40;99.90;;;;;;4998543;28;20258;-77
2021/07/11 01:33:06;;;;;;;0.30;0.30;;;18.40;99.90;;;;;;4994720;28;20307;-77
2021/07/11 01:35:35;;;;;;;0.30;0.30;;;18.40;99.90;;;;;;4995711;28;20200;-77
2021/07/11 01:38:03;;;;;;;0.30;0.30;;;18.40;99.90;;;;;;4996397;28;20224;-78
2021/07/11 01:40:33;;;;;;;0.30;0.30;;;18.40;99.90;;;;;;4995798;28;20247;-77
2021/07/11 01:43:02;;;;;;;0.30;0.30;;;18.40;99.90;;;;;;4998010;28;20243;-77
2021/07/11 01:45:30;;;;;;;0.30;0.30;;;18.50;99.90;;;;;;4999924;28;20203;-78
2021/07/11 01:47:59;;;;;;;0.30;0.30;;;18.40;99.90;;;;;;5000800;28;20732;-77
2021/07/11 01:50:27;;;;;;;0.30;0.30;;;18.30;99.90;;;;;;5000671;28;20207;-78
2021/07/11 01:52:56;;;;;;;0.40;0.40;;;18.30;99.90;;;;;;5001457;28;20224;-78
2021/07/11 01:55:25;;;;;;;0.40;0.40;;;18.20;99.90;;;;;;5000770;28;20232;-78
2021/07/11 01:57:55;;;;;;;0.40;0.40;;;18.10;99.90;;;;;;5001478;28;20274;-78
2021/07/11 02:00:23;;;;;;;0.30;0.30;;;18.10;99.90;;;;;;5002167;28;20775;-77
2021/07/11 02:02:51;;;;;;;0.30;0.30;;;18.00;99.90;;;;;;5003848;28;20772;-75
2021/07/11 02:05:20;;;;;;;0.40;0.40;;;18.00;99.90;;;;;;5007518;28;20208;-76
2021/07/11 02:07:48;;;;;;;0.40;0.40;;;18.00;99.90;;;;;;5009592;28;20200;-78
2021/07/11 02:10:18;;;;;;;0.30;0.30;;;18.00;99.90;;;;;;5006854;28;20204;-78
2021/07/11 02:12:50;;;;;;;0.30;0.30;;;18.00;99.90;;;;;;5003205;28;20263;-78
2021/07/11 02:15:19;;;;;;;0.30;0.30;;;18.00;99.90;;;;;;5004513;28;20231;-75
2021/07/11 02:17:50;;;;;;;0.40;0.40;;;18.10;99.90;;;;;;5006273;28;20243;-78
2021/07/11 02:20:20;;;;;;;0.30;0.30;;;18.10;99.90;;;;;;5001009;28;20209;-77
2021/07/11 02:22:49;;;;;;;0.40;0.40;;;18.00;99.90;;;;;;5001678;28;20251;-78
2021/07/11 02:25:18;;;;;;;0.30;0.30;;;18.00;99.90;;;;;;5002356;28;20251;-75
2021/07/11 02:27:47;;;;;;;0.40;0.40;;;17.90;99.90;;;;;;4998214;28;20199;-79
2021/07/11 02:30:17;;;;;;;0.40;0.40;;;18.00;99.90;;;;;;4996408;28;20286;-78
2021/07/11 02:32:49;;;;;;;0.30;0.30;;;17.90;99.90;;;;;;4997415;28;20948;-78
2021/07/11 02:35:24;;;;;;;0.40;0.40;;;17.90;99.90;;;;;;4997977;28;20204;-78
2021/07/11 02:37:52;;;;;;;0.40;0.40;;;17.90;99.90;;;;;;4998465;28;20711;-77
2021/07/11 02:40:21;;;;;;;0.40;0.40;;;17.80;99.90;;;;;;4999135;28;20235;-78
2021/07/11 02:42:53;;;;;;;0.30;0.30;;;17.80;99.90;;;;;;4998582;28;20588;-79
2021/07/11 02:45:22;;;;;;;0.30;0.30;;;17.70;99.90;;;;;;4997978;28;20282;-79
2021/07/11 02:47:52;;;;;;;0.40;0.40;;;17.80;99.90;;;;;;4998147;28;20211;-78
2021/07/11 02:50:20;;;;;;;0.40;0.40;;;17.80;99.90;;;;;;4998331;28;20211;-77
2021/07/11 02:52:48;;;;;;;0.30;0.30;;;17.70;99.90;;;;;;4997781;28;20262;-78
2021/07/11 02:55:19;;;;;;;0.40;0.40;;;17.60;99.90;;;;;;4997459;28;20211;-77
2021/07/11 02:57:52;;;;;;;0.30;0.30;;;17.60;99.90;;;;;;4998550;28;20223;-79
2021/07/11 03:00:20;;;;;;;0.30;0.30;;;17.60;99.90;;;;;;4998797;28;20608;-76
2021/07/11 03:02:48;;;;;;;0.40;0.40;;;;;;;;;;4999576;28;20228;-79
2021/07/11 03:05:23;;;;;;;0.40;0.40;;;17.80;99.90;;;;;;5000483;28;20210;-78
2021/07/11 03:07:51;;;;;;;0.40;0.40;;;17.80;99.90;;;;;;4999573;28;20619;-78
2021/07/11 03:10:20;;;;;;;0.40;0.40;;;17.80;99.90;;;;;;4998904;28;20208;-78
2021/07/11 03:12:52;;;;;;;0.40;0.40;;;17.80;99.90;;;;;;4998407;28;20231;-78
2021/07/11 03:15:20;;;;;;;0.40;0.40;;;17.80;99.90;;;;;;4998061;28;20203;-78
2021/07/11 03:17:48;;;;;;;0.30;0.30;;;17.90;99.90;;;;;;4998270;28;20216;-78
2021/07/11 03:20:17;;;;;;;0.30;0.30;;;17.90;99.90;;;;;;4998343;28;20204;-77
2021/07/11 03:22:47;;;;;;;0.30;0.30;;;17.90;99.90;;;;;;4998345;28;20583;-78
2021/07/11 03:25:15;;;;;;;0.40;0.40;;;18.00;99.90;;;;;;4998221;28;20765;-78
2021/07/11 03:27:42;;;;;;;0.30;0.30;;;18.00;99.90;;;;;;4998280;28;20480;-78
2021/07/11 03:30:13;;;;;;;0.40;0.40;;;18.00;99.90;;;;;;4997925;28;20208;-78
2021/07/11 03:32:45;;;;;;;0.40;0.40;;;18.00;99.90;;;;;;4997866;28;20280;-76
2021/07/11 03:35:15;;;;;;;0.40;0.40;;;17.90;99.90;;;;;;4997722;28;20737;-78
2021/07/11 03:37:44;;;;;;;0.40;0.40;;;18.00;99.90;;;;;;4998109;28;20584;-78
2021/07/11 03:40:18;;;;;;;0.30;0.30;;;18.20;99.90;;;;;;4997711;28;20239;-78
2021/07/11 03:42:49;;;;;;;0.30;0.30;;;18.20;99.90;;;;;;4997565;28;20220;-78
2021/07/11 03:45:17;;;;;;;0.30;0.30;;;18.20;99.90;;;;;;4989549;28;20236;-78
2021/07/11 03:47:48;;;;;;;0.30;0.30;;;18.20;99.90;;;;;;4996477;28;20211;-77
2021/07/11 03:50:20;;;;;;;0.40;0.40;;;18.20;99.90;;;;;;4997163;28;20274;-77
2021/07/11 03:52:52;;;;;;;0.30;0.30;;;18.30;99.90;;;;;;4997225;28;20231;-77
2021/07/11 03:55:23;;;;;;;0.40;0.40;;;18.40;99.90;;;;;;4996793;28;20208;-78
2021/07/11 03:57:52;;;;;;;0.40;0.40;;;18.40;99.90;;;;;;4997102;28;20204;-78
2021/07/11 04:00:21;;;;;;;0.30;0.30;;;18.60;99.90;;;;;;4996717;28;20276;-77
2021/07/11 04:02:50;;;;;;;0.40;0.40;;;18.60;99.90;;;;;;4996557;28;20223;-79
2021/07/11 04:05:21;;;;;;;0.30;0.30;;;18.70;99.90;;;;;;4996570;28;20258;-78
2021/07/11 04:07:51;;;;;;;0.40;0.40;;;18.70;99.90;;;;;;4996604;28;20208;-78
2021/07/11 04:10:24;;;;;;;0.30;0.30;;;18.80;99.90;;;;;;4972185;28;20205;-78
2021/07/11 04:12:53;;;;;;;0.30;0.30;;;19.00;99.90;;;;;;4975974;28;20229;-77
2021/07/11 04:15:21;;;;;;;0.30;0.30;;;19.00;99.90;;;;;;4968921;28;20205;-76
2021/07/11 04:17:51;;;;;;;0.30;0.30;;;19.10;99.90;;;;;;4970327;28;20204;-76
2021/07/11 04:20:21;;;;;;;0.30;0.30;;;19.20;99.90;;;;;;4973874;28;20263;-76
2021/07/11 04:22:55;;;;;;;0.30;0.30;;;19.20;99.90;;;;;;4973593;28;20248;-76
2021/07/11 04:25:24;;;;;;;0.32;0.32;;;19.30;99.90;;;;;;4973416;28;20588;-76
2021/07/11 04:27:54;;;;;;;0.30;0.30;;;19.30;99.90;;;;;;4973523;28;20204;-77
2021/07/11 04:30:22;;;;;;;0.30;0.30;;;19.30;99.90;;;;;;4973648;28;20204;-76
2021/07/11 04:32:50;;;;;;;0.30;0.30;;;19.20;99.90;;;;;;4973469;28;20229;-75
2021/07/11 04:35:18;;;;;;;0.30;0.30;;;19.30;99.90;;;;;;4973489;28;20586;-76
2021/07/11 04:37:46;;;;;;;0.30;0.30;;;19.30;99.90;;;;;;4973486;28;20256;-76
2021/07/11 04:40:15;;;;;;;0.30;0.30;;;19.40;99.90;;;;;;4973376;28;20224;-75
2021/07/11 04:42:45;;;;;;;0.35;0.35;;;19.40;99.90;;;;;;4973539;28;20263;-76
2021/07/11 04:45:13;;;;;;;0.30;0.30;;;19.50;99.90;;;;;;4973340;28;20197;-75
2021/07/11 04:47:40;;;;;;;0.32;0.32;;;19.50;99.90;;;;;;4973561;28;20208;-76
2021/07/11 04:50:10;;;;;;;0.40;0.40;;;19.60;99.90;;;;;;4973353;28;20197;-75
2021/07/11 04:52:38;;;;;;;0.20;0.20;;;19.60;99.90;;;;;;4973590;28;20251;-75
2021/07/11 04:55:09;;;;;;;0.20;0.20;;;19.70;99.90;;;;;;4973142;28;20260;-76
2021/07/11 04:57:37;;;;;;;0.22;0.22;;;19.70;99.90;;;;;;4973208;28;20215;-76
2021/07/11 05:00:10;;;;;;;0.30;0.30;;;19.70;99.90;;;;;;4973172;28;20220;-75
2021/07/11 05:02:38;;;;;;;0.30;0.30;;;19.80;99.90;;;;;;4973046;28;20669;-76
2021/07/11 05:05:08;;;;;;;0.30;0.30;;;19.90;99.90;;;;;;4973046;28;20216;-76
2021/07/11 05:07:36;;;;;;;0.22;0.22;;;19.90;99.90;;;;;;4972824;28;20345;-76
2021/07/11 05:10:08;;;;;;;0.20;0.20;;;19.90;99.90;;;;;;4973064;28;20692;-75
2021/07/11 05:12:36;;;;;;;0.30;0.30;;;19.90;99.90;;;;;;4972901;28;20231;-76
2021/07/11 05:15:07;;;;;;;0.30;0.30;;;20.00;99.90;;;;;;4973108;28;20269;-76
2021/07/11 05:17:35;;;;;;;0.20;0.20;;;20.20;99.90;;;;;;4972753;28;20205;-76
2021/07/11 05:20:06;;;;;;;0.30;0.30;;;20.40;99.90;;;;;;4972841;28;20220;-74
2021/07/11 05:22:34;;;;;;;0.30;0.30;;;21.00;99.90;;;;;;4972925;28;20744;-75
2021/07/11 05:25:06;;;;;;;0.30;0.30;;;20.90;99.90;;;;;;4972833;28;20244;-75
2021/07/11 05:27:35;;;;;;;0.20;0.20;;;21.00;99.90;;;;;;4972633;28;20205;-75
2021/07/11 05:30:04;;;;;;;0.30;0.30;;;21.10;99.90;;;;;;4972793;28;20201;-75
2021/07/11 05:32:33;;;;;;;0.30;0.30;;;21.50;99.90;;;;;;4973133;28;20200;-76
2021/07/11 05:35:01;;;;;;;0.30;0.30;;;21.40;99.90;;;;;;4972759;28;20209;-75
2021/07/11 05:37:29;;;;;;;0.20;0.20;;;21.40;99.90;;;;;;4972490;28;20698;-75
2021/07/11 05:39:56;;;;;;;0.20;0.20;;;21.40;99.90;;;;;;4972770;28;20233;-76
2021/07/11 05:42:24;;;;;;;0.20;0.20;;;21.60;99.90;;;;;;4972691;28;20209;-76
2021/07/11 05:44:52;;;;;;;0.30;0.30;;;21.50;99.90;;;;;;4972588;28;20205;-75
2021/07/11 05:47:20;;;;;;;0.30;0.30;;;21.50;99.90;;;;;;4972449;28;20584;-75
2021/07/11 05:49:49;;;;;;;0.20;0.20;;;21.30;99.90;;;;;;4972925;28;20200;-76
2021/07/11 05:52:20;;;;;;;0.20;0.20;;;;;;;;;;4972919;28;20215;-75
2021/07/11 05:54:48;;;;;;;0.20;0.20;;;21.30;99.90;;;;;;4972841;28;20209;-75
2021/07/11 05:57:18;;;;;;;0.20;0.20;;;21.50;99.90;;;;;;4972553;28;20256;-75
2021/07/11 05:59:46;;;;;;;0.20;0.20;;;21.50;99.90;;;;;;4972812;28;20220;-75
2021/07/11 06:02:14;;;;;;;0.30;0.30;;;21.70;99.90;;;;;;4972616;28;20264;-75
2021/07/11 06:04:43;;;;;;;0.30;0.30;;;21.80;99.90;;;;;;4971884;28;20773;-76
2021/07/11 06:07:12;;;;;;;0.20;0.20;;;21.90;99.90;;;;;;4971157;28;20212;-76
2021/07/11 06:09:40;;;;;;;0.20;0.20;;;22.00;99.90;;;;;;4955617;28;20277;-76
2021/07/11 06:12:09;;;;;;;0.20;0.20;;;22.10;99.90;;;;;;4952928;29;20201;-75
2021/07/11 06:14:37;;;;;;;0.20;0.20;;;22.20;99.90;;;;;;4953036;29;20312;-76
2021/07/11 06:17:05;;;;;;;0.20;0.20;;;22.30;99.90;;;;;;4953062;29;20285;-76
2021/07/11 06:19:33;;;;;;;0.20;0.20;;;22.50;99.90;;;;;;4953105;29;20312;-75
2021/07/11 06:22:01;;;;;;;0.20;0.20;;;22.70;99.90;;;;;;4953480;29;20205;-75
2021/07/11 06:24:30;;;;;;;0.30;0.30;;;22.90;99.90;;;;;;4953007;28;20225;-77
2021/07/11 06:26:58;;;;;;;0.20;0.20;;;23.00;99.90;;;;;;4952642;29;20689;-76
2021/07/11 06:29:26;;;;;;;0.20;0.20;;;23.10;99.90;;;;;;4955130;28;20225;-76
2021/07/11 06:31:54;;;;;;;0.20;0.20;;;23.10;99.90;;;;;;4956542;28;20205;-76
2021/07/11 06:34:23;;;;;;;0.20;0.20;;;23.00;99.90;;;;;;4963565;28;20260;-72
2021/07/11 06:36:51;;;;;;;0.20;0.20;;;23.10;99.90;;;;;;4972263;28;20259;-78
2021/07/11 06:39:19;;;;;;;0.20;0.20;;;23.10;99.90;;;;;;4968457;28;20628;-78
2021/07/11 06:41:48;;;;;;;0.20;0.20;;;23.10;99.90;;;;;;4978087;28;20205;-79
2021/07/11 06:44:16;;;;;;;0.20;0.20;;;22.90;99.90;;;;;;4975935;28;20275;-77
2021/07/11 06:46:44;;;;;;;0.20;0.20;;;23.20;99.90;;;;;;4975172;28;20690;-77
2021/07/11 06:49:12;;;;;;;0.20;0.20;;;23.20;99.90;;;;;;4975535;28;20208;-76
2021/07/11 06:51:40;;;;;;;0.20;0.20;;;23.30;99.90;;;;;;4977557;28;20271;-77
2021/07/11 06:54:07;;;;;;;0.20;0.20;;;23.20;99.90;;;;;;4975613;28;20221;-76
2021/07/11 06:56:35;;;;;;;0.20;0.20;;;23.20;99.90;;;;;;4975388;28;20209;-76
2021/07/11 06:59:05;;;;;;;0.20;0.20;;;23.30;99.90;;;;;;4975369;28;20204;-75
2021/07/11 07:01:33;;;;;;;0.20;0.20;;;23.30;99.90;;;;;;4975413;28;20287;-73
2021/07/11 07:04:01;;;;;;;0.20;0.20;;;23.40;99.90;;;;;;4975291;28;20240;-78
2021/07/11 07:06:28;;;;;;;0.20;0.20;;;23.40;99.90;;;;;;4973861;28;20213;-77
2021/07/11 07:08:56;;;;;;;0.20;0.20;;;23.50;99.90;;;;;;4974214;28;20200;-76
2021/07/11 07:11:24;;;;;;;0.20;0.20;;;23.80;99.90;;;;;;4975275;28;20577;-76
2021/07/11 07:13:52;;;;;;;0.10;0.10;;;23.50;99.90;;;;;;4975131;28;20236;-75
2021/07/11 07:16:21;;;;;;;0.20;0.20;;;23.60;99.90;;;;;;4975190;28;20271;-74
2021/07/11 07:18:50;;;;;;;0.15;0.15;;;23.70;99.90;;;;;;4975161;28;20219;-76
2021/07/11 07:21:18;;;;;;;0.20;0.20;;;23.70;99.90;;;;;;4957304;28;20222;-74
2021/07/11 07:23:47;;;;;;;0.20;0.20;;;23.80;99.90;;;;;;4967356;28;20220;-77
2021/07/11 07:26:16;;;;;;;0.20;0.20;;;23.80;99.90;;;;;;4971878;28;20201;-76
2021/07/11 07:28:44;;;;;;;0.20;0.20;;;23.90;99.90;;;;;;4975482;28;20243;-77
2021/07/11 07:31:13;;;;;;;0.20;0.20;;;23.90;99.90;;;;;;4975929;28;20196;-77
2021/07/11 07:33:43;;;;;;;0.25;0.25;;;23.90;99.90;;;;;;4975802;28;20221;-77
2021/07/11 07:36:11;;;;;;;0.20;0.20;;;23.90;99.90;;;;;;4975879;28;20208;-77
2021/07/11 07:38:40;;;;;;;0.20;0.20;;;24.00;99.90;;;;;;4975064;28;20208;-77
2021/07/11 07:41:08;;;;;;;0.20;0.20;;;24.00;99.90;;;;;;4974517;28;20252;-76
2021/07/11 07:43:37;;;;;;;0.10;0.10;;;24.10;99.90;;;;;;4974597;28;20757;-76
2021/07/11 07:46:05;;;;;;;0.20;0.20;;;24.10;99.90;;;;;;4974348;28;20225;-76
2021/07/11 07:48:34;;;;;;;0.10;0.10;;;24.20;99.90;;;;;;4974543;28;20235;-75
2021/07/11 07:51:04;;;;;;;0.20;0.20;;;24.30;99.90;;;;;;4974522;28;20217;-75
2021/07/11 07:53:32;;;;;;;0.20;0.20;;;24.30;99.90;;;;;;4974303;28;20241;-76
2021/07/11 07:56:01;;;;;;;0.10;0.10;;;24.40;99.90;;;;;;4973789;28;20213;-76
2021/07/11 07:58:29;;;;;;;0.20;0.20;;;24.30;99.90;;;;;;4974195;28;20216;-76
2021/07/11 08:00:57;;;;;;;0.20;0.20;;;24.30;99.90;;;;;;4974443;28;20311;-76
2021/07/11 08:03:26;;;;;;;0.20;0.20;;;24.40;99.90;;;;;;4964302;28;20284;-77
2021/07/11 08:05:55;;;;;;;0.10;0.10;;;24.40;99.90;;;;;;4975342;28;20757;-78
2021/07/11 08:08:25;;;;;;;0.10;0.10;;;24.30;99.90;;;;;;4976289;28;20585;-77
2021/07/11 08:10:55;;;;;;;0.20;0.20;;;24.40;99.90;;;;;;4977519;28;20200;-76
2021/07/11 08:13:24;;;;;;;0.10;0.10;;;24.40;99.90;;;;;;4985094;28;20237;-77
2021/07/11 08:15:55;;;;;;;0.20;0.20;;;24.40;99.90;;;;;;4981590;28;20200;-77
2021/07/11 08:18:24;;;;;;;0.10;0.10;;;24.50;99.90;;;;;;4975271;28;20669;-77
2021/07/11 08:20:52;;;;;;;0.10;0.10;;;24.60;99.90;;;;;;4976204;28;20224;-78
2021/07/11 08:23:20;;;;;;;0.20;0.20;;;24.60;99.80;;;;;;4978145;28;20228;-78
2021/07/11 08:25:49;;;;;;;0.20;0.20;;;24.60;98.80;;;;;;4980688;28;20213;-78
2021/07/11 08:28:18;;;;;;;0.10;0.10;;;24.60;99.30;;;;;;4981795;28;20263;-78
2021/07/11 08:30:46;;;;;;;0.20;0.20;;;24.60;98.60;;;;;;4979820;28;20197;-78
2021/07/11 08:33:14;;;;;;;0.10;0.10;;;24.60;98.20;;;;;;4995031;28;20238;-76
2021/07/11 08:35:41;;;;;;;0.20;0.20;;;24.60;98.50;;;;;;4995739;28;20235;-78
2021/07/11 08:38:10;;;;;;;0.20;0.20;;;24.60;98.30;;;;;;4997997;28;20232;-76
2021/07/11 08:40:38;;;;;;;0.10;0.10;;;24.80;98.20;;;;;;4995701;28;20270;-77
2021/07/11 08:43:09;;;;;;;0.10;0.10;;;24.90;98.20;;;;;;4993905;28;20238;-77
2021/07/11 08:45:40;;;;;;;0.10;0.10;;;25.00;97.70;;;;;;4997571;28;20575;-76
2021/07/11 08:48:07;;;;;;;0.10;0.10;;;25.10;96.80;;;;;;5002328;28;20215;-76
2021/07/11 08:50:35;;;;;;;0.10;0.10;;;25.10;96.30;;;;;;4996224;28;20259;-78
2021/07/11 08:53:04;;;;;;;0.20;0.20;;;25.30;96.50;;;;;;4995382;28;20632;-78
2021/07/11 08:55:32;;;;;;;0.10;0.10;;;25.40;95.60;;;;;;4995622;28;20259;-77
2021/07/11 08:58:01;;;;;;;0.10;0.10;;;25.50;95.20;;;;;;4993406;28;20204;-76
2021/07/11 09:00:32;;;;;;;0.10;0.10;;;25.50;94.70;;;;;;4991316;28;20243;-77
2021/07/11 09:03:01;;;;;;;0.10;0.10;;;25.80;95.10;;;;;;4992693;28;20224;-77
2021/07/11 09:05:30;;;;;;;0.10;0.10;;;25.90;95.30;;;;;;4992884;28;20204;-77
2021/07/11 09:08:00;;;;;;;0.10;0.10;;;26.00;93.30;;;;;;4992885;28;20203;-76
2021/07/11 09:10:33;;;;;;;0.20;0.20;;;25.90;94.70;;;;;;4996992;28;20219;-76
2021/07/11 09:13:02;;;;;;;0.10;0.10;;;26.00;94.70;;;;;;4992961;28;20231;-77
2021/07/11 09:15:34;;;;;;;0.10;0.10;;;25.90;92.80;;;;;;4992745;28;20204;-77
2021/07/11 09:18:02;;;;;;;0.17;0.17;;;25.90;93.60;;;;;;4993578;28;20215;-76
2021/07/11 09:20:31;;;;;;;0.10;0.10;;;25.80;93.30;;;;;;4994264;28;20251;-77
2021/07/11 09:23:01;;;;;;;0.10;0.10;;;25.80;93.00;;;;;;4992981;28;20271;-77
2021/07/11 09:25:30;;;;;;;0.10;0.10;;;25.90;94.60;;;;;;4992375;28;20203;-76
2021/07/11 09:27:58;;;;;;;0.20;0.20;;;25.90;93.80;;;;;;4992510;28;20681;-77
2021/07/11 09:30:25;;;;;;;0.10;0.10;;;26.00;92.90;;;;;;4992905;28;20207;-77
2021/07/11 09:32:55;;;;;;;0.10;0.10;;;26.10;93.60;;;;;;4994802;28;20255;-78
2021/07/11 09:35:27;;;;;;;0.10;0.10;;;26.30;98.40;;;;;;4992793;28;20695;-77
2021/07/11 09:37:58;;;;;;;0.10;0.10;;;26.50;92.70;;;;;;4992662;28;20291;-77
2021/07/11 09:40:30;;;;;;;0.17;0.17;;;26.60;93.00;;;;;;4992479;28;20204;-77
2021/07/11 09:42:59;;;;;;;0.10;0.10;;;26.90;91.90;;;;;;4992496;28;20277;-77
2021/07/11 09:45:28;;;;;;;0.10;0.10;;;27.20;93.50;;;;;;4992959;28;20215;-78
2021/07/11 09:48:05;;;;;;;0.10;0.10;;;27.80;95.80;;;;;;4994124;28;20251;-78
2021/07/11 09:50:33;;;;;;;0.13;0.13;;;27.80;90.90;;;;;;4993449;28;20281;-77
2021/07/11 09:53:02;;;;;;;0.10;0.10;;;28.40;95.90;;;;;;4993195;28;20216;-76
2021/07/11 09:55:32;;;;;;;0.10;0.10;;;28.20;90.80;;;;;;4992365;28;20267;-76
2021/07/11 09:58:01;;;;;;;0.10;0.10;;;28.40;89.40;;;;;;4992233;28;20216;-75
2021/07/11 10:00:32;;;;;;;0.10;0.10;;;28.60;87.60;;;;;;4992440;28;20204;-77
2021/07/11 10:03:03;;;;;;;0.10;0.10;;;28.70;86.80;;;;;;4992256;28;20640;-77
2021/07/11 10:05:32;;;;;;;0.10;0.10;;;28.80;85.80;;;;;;4995384;28;20254;-77
2021/07/11 10:08:01;;;;;;;0.10;0.10;;;28.80;86.20;;;;;;4996204;28;20230;-77
2021/07/11 10:10:32;;;;;;;0.10;0.10;;;28.80;83.80;;;;;;4995875;28;20665;-77
2021/07/11 10:13:01;;;;;;;0.10;0.10;;;28.70;84.90;;;;;;4996114;28;20236;-76
2021/07/11 10:15:32;;;;;;;0.10;0.10;;;28.70;85.10;;;;;;4996449;28;20215;-76
2021/07/11 10:18:06;;;;;;;0.10;0.10;;;28.70;86.80;;;;;;4996163;28;20672;-77
2021/07/11 10:20:40;;;;;;;0.10;0.10;;;28.60;85.60;;;;;;4997593;28;20223;-77
2021/07/11 10:23:09;;;;;;;0.10;0.10;;;28.70;88.60;;;;;;4995988;28;20224;-78
2021/07/11 10:25:39;;;;;;;0.10;0.10;;;28.80;86.30;;;;;;4996368;28;20208;-77
2021/07/11 10:28:10;;;;;;;0.10;0.10;;;28.90;85.30;;;;;;4995908;28;20200;-77
2021/07/11 10:30:41;;;;;;;0.10;0.10;;;28.90;80.20;;;;;;4995329;28;20208;-77
2021/07/11 10:33:12;;;;;;;0.10;0.10;;;29.00;81.90;;;;;;4995669;28;20220;-77
2021/07/11 10:35:55;;;;;;;0.10;0.10;;;28.90;80.10;;;;;;4995361;28;20204;-76
2021/07/11 10:38:32;;;;;;;0.10;0.10;;;28.80;82.30;;;;;;4992242;28;20220;-77
2021/07/11 10:41:12;;;;;;;0.10;0.10;;;28.70;81.40;;;;;;4957761;28;20232;-77
2021/07/11 10:43:42;;;;;;;0.10;0.10;;;28.50;81.80;;;;;;4959186;29;20292;-78
2021/07/11 10:46:12;;;;;;;0.10;0.10;;;28.50;86.10;;;;;;4962349;29;20213;-82
2021/07/11 10:48:41;;;;;;;0.10;0.10;;;28.40;82.00;;;;;;4961956;29;20210;-80
2021/07/11 10:51:19;;;;;;;0.10;0.10;;;28.40;85.30;;;;;;4964449;29;20201;-79
2021/07/11 10:53:47;;;;;;;0.10;0.10;;;28.10;85.30;;;;;;4960446;29;20260;-77
2021/07/11 10:56:20;;;;;;;0.10;0.10;;;27.90;92.20;;;;;;4956180;29;20210;-78
2021/07/11 10:58:49;;;;;;;0.10;0.10;;;27.70;91.00;;;;;;4956352;29;20194;-77
2021/07/11 11:01:19;;;;;;;0.13;0.13;;;27.40;87.50;;;;;;4957732;28;20627;-78
2021/07/11 11:03:50;;;;;;;0.10;0.10;;;27.20;86.90;;;;;;4956397;29;20316;-80
2021/07/11 11:06:19;;;;;;;0.10;0.10;;;26.90;88.50;;;;;;4956831;29;20205;-78
2021/07/11 11:08:48;;;;;;;0.10;0.10;;;26.80;89.70;;;;;;4960126;29;20297;-78
2021/07/11 11:11:17;;;;;;;0.10;0.10;;;26.60;89.10;;;;;;4956180;29;20574;-79
2021/07/11 11:13:45;;;;;;;0.10;0.10;;;26.40;92.30;;;;;;4955640;29;20323;-79
2021/07/11 11:16:18;;;;;;;0.10;0.10;;;26.40;94.00;;;;;;4955171;28;20205;-78
2021/07/11 11:18:53;;;;;;;0.10;0.10;;;26.40;94.20;;;;;;4961709;29;20314;-79
2021/07/11 11:21:23;;;;;;;0.10;0.10;;;26.30;91.60;;;;;;4959568;29;20194;-78
2021/07/11 11:23:53;;;;;;;0.10;0.10;;;26.20;92.10;;;;;;4960061;29;20285;-81
2021/07/11 11:26:24;;;;;;;0.10;0.10;;;26.20;90.90;;;;;;4966523;29;20216;-80
2021/07/11 11:28:55;;;;;;;0.10;0.10;;;;;;;;;;4962111;29;20651;-78
2021/07/11 11:31:24;;;;;;;0.10;0.10;;;26.20;92.10;;;;;;4963346;29;20289;-79
2021/07/11 11:34:00;;;;;;;0.10;0.10;;;26.40;92.90;;;;;;4960916;29;20601;-78
2021/07/11 11:36:31;;;;;;;0.10;0.10;;;26.50;94.70;;;;;;4963474;29;20586;-81
2021/07/11 11:39:01;;;;;;;0.10;0.10;;;26.60;95.40;;;;;;4964930;29;20198;-80
2021/07/11 11:41:30;;;;;;;0.20;0.20;;;26.60;92.50;;;;;;4967217;29;20212;-80
2021/07/11 11:44:12;;;;;;;0.10;0.10;;;26.60;94.60;;;;;;4967348;28;20252;-80
2021/07/11 11:46:42;;;;;;;0.10;0.10;;;26.60;92.60;;;;;;4968851;29;20198;-80
2021/07/11 11:49:13;;;;;;;0.10;0.10;;;26.50;92.90;;;;;;4957846;29;20201;-79
2021/07/11 11:51:46;;;;;;;0.10;0.10;;;26.50;93.90;;;;;;4957613;29;20201;-81
2021/07/11 11:54:25;;;;;;;0.10;0.10;;;26.50;93.30;;;;;;4960246;28;20221;-79
2021/07/11 11:56:54;;;;;;;0.10;0.10;;;26.50;91.60;;;;;;4960298;29;20211;-82
2021/07/11 11:59:23;;;;;;;0.20;0.20;;;26.60;90.90;;;;;;4962149;29;20205;-81
2021/07/11 12:01:56;;;;;;;0.10;0.10;;;26.60;92.30;;;;;;4961881;29;20216;-81
2021/07/11 12:04:27;;;;;;;0.20;0.20;;;26.70;94.40;;;;;;4960778;29;20694;-81
2021/07/11 12:06:57;;;;;;;0.10;0.10;;;26.70;91.50;;;;;;4960676;29;20253;-83
2021/07/11 12:09:27;;;;;;;0.10;0.10;;;26.80;92.00;;;;;;4960937;29;20212;-81
2021/07/11 12:12:00;;;;;;;0.10;0.10;;;26.80;89.90;;;;;;4963070;29;20209;-81
2021/07/11 12:14:32;;;;;;;0.10;0.10;;;26.80;92.90;;;;;;4967433;29;20232;-82
2021/07/11 12:17:03;;;;;;;0.10;0.10;;;26.80;95.10;;;;;;4968629;29;20233;-82
2021/07/11 12:19:44;;;;;;;0.10;0.10;;;26.80;94.40;;;;;;4962944;29;20216;-78
2021/07/11 12:22:17;;;;;;;0.10;0.10;;;27.00;93.20;;;;;;4968529;29;20277;-80
2021/07/11 12:24:48;;;;;;;0.10;0.10;;;27.30;89.70;;;;;;4969071;29;20230;-80
2021/07/11 12:27:21;;;;;;;0.20;0.20;;;27.50;87.50;;;;;;4981341;28;20657;-79
2021/07/11 12:29:49;;;;;;;0.10;0.10;;;27.60;90.10;;;;;;5012065;28;20203;-78
2021/07/11 12:32:16;;;;;;;0.10;0.10;;;27.80;89.10;;;;;;5009547;28;20638;-79
2021/07/11 12:34:57;;;;;;;0.10;0.10;;;27.70;87.00;;;;;;5009023;28;20278;-78
2021/07/11 12:37:25;;;;;;;0.10;0.10;;;27.70;91.30;;;;;;5007137;28;20703;-80
2021/07/11 12:39:53;;;;;;;0.10;0.10;;;;;;;;;;5007261;28;20199;-82
2021/07/11 12:42:21;;;;;;;0.10;0.10;;;;;;;;;;5005989;28;20204;-80
2021/07/11 12:44:49;;;;;;;0.10;0.10;;;28.40;83.20;;;;;;5005894;28;20208;-79
2021/07/11 12:47:19;;;;;;;0.10;0.10;;;28.50;85.30;;;;;;5005824;28;20228;-80
2021/07/11 12:49:52;;;;;;;0.10;0.10;;;28.50;91.80;;;;;;5006267;28;20320;-80
2021/07/11 12:52:20;;;;;;;0.10;0.10;;;28.80;89.60;;;;;;5007919;28;20716;-81
2021/07/11 12:54:48;;;;;;;0.10;0.10;;;29.50;87.20;;;;;;5007366;28;20232;-80
2021/07/11 12:57:16;;;;;;;0.10;0.10;;;29.60;88.60;;;;;;5006081;28;20238;-80
2021/07/11 12:59:47;;;;;;;0.10;0.10;;;29.70;87.00;;;;;;5006043;28;20204;-80